Flight Track Log - Related Links

Times and Time Zones

All times are in EDT time to prevent confusion due to time zone crossing. See the N431AF flight status page for this flight to view local times or setup timezone preferences in your user account.

Time Position Orientation Groundspeed Altitude Reporting Facility
EDT Latitude Longitude Course Direction KTS MPH feet Rate Location/Type
Mon 05:37:17 PM 30.1697 -97.6061 28° Northeast 74 85 2,900  Level Houston Center
Mon 05:38:18 PM 30.1925 -97.5900 31° Northeast 80 92 3,700 732 Climbing Houston Center
Mon 05:39:20 PM 30.2089 -97.5761 36° Northeast 74 85 4,400 629 Climbing Houston Center
Mon 05:40:22 PM 30.2233 -97.5567 49° Northeast 76 87 5,000 387 Climbing Houston Center
Mon 05:41:00 PM 30.3728 -97.5595 28° Northeast  Level Estimated
Mon 05:41:24 PM 30.2419 -97.5317 49° Northeast 96 110 5,200  Level Houston Center
Mon 05:42:00 PM 30.4025 -97.5411 28° Northeast  Level Estimated
Mon 05:42:26 PM 30.2631 -97.5083 44° Northeast 106 122 5,600  Level Houston Center
Mon 05:43:28 PM 30.2844 -97.4906 36° Northeast 97 112 6,100 488 Climbing Houston Center
Mon 05:44:29 PM 30.3083 -97.4781 24° Northeast 95 109 6,600 439 Climbing Houston Center
Mon 05:45:31 PM 30.3383 -97.4789 359° North 104 120 7,000 194 Climbing Houston Center
Mon 05:46:33 PM 30.3719 -97.4744 North 116 133 7,000  Level Houston Center
Mon 05:47:35 PM 30.4158 -97.4747 360° North 129 148 7,000  Level Houston Center
Mon 05:48:37 PM 30.4497 -97.4714 North 124 143 7,000  Level Houston Center
Mon 05:49:38 PM 30.4853 -97.4708 North 125 144 7,000  Level Houston Center
Mon 05:50:40 PM 30.5206 -97.4681 North 126 145 7,000  Level Houston Center
Mon 05:51:42 PM 30.5567 -97.4653 North 127 146 7,000  Level Houston Center
Mon 05:52:44 PM 30.5933 -97.4628 North 129 148 7,000 244 Level Houston Center
Mon 05:53:45 PM 30.6281 -97.4606 North 126 145 7,500 439 Climbing Houston Center
Mon 05:54:47 PM 30.6589 -97.4589 North 115 132 7,900 435 Climbing Houston Center
Mon 05:55:49 PM 30.6894 -97.4572 North 110 127 8,400 532 Climbing Houston Center
Mon 05:56:51 PM 30.7258 -97.4583 358° North 110 127 9,000 290 Climbing Houston Center
Mon 05:57:53 PM 30.7594 -97.4542 North 116 133 9,000  Level Houston Center
Mon 05:58:54 PM 30.7947 -97.4461 11° North 126 145 9,000  Level Houston Center
Mon 05:59:56 PM 30.8325 -97.4442 North 133 153 9,000  Level Houston Center
Mon 06:00:58 PM 30.8714 -97.4536 348° North 139 160 9,000  Level Houston Center
Mon 06:02:00 PM 30.9100 -97.4611 351° North 139 160 9,000  Level Houston Center
Mon 06:03:01 PM 30.9461 -97.4681 351° North 132 152 9,000  Level Houston Center
Mon 06:04:03 PM 30.9828 -97.4750 351° North 131 151 9,000  Level Houston Center
Mon 06:05:05 PM 31.0208 -97.4797 354° North 134 154 9,000  Level Houston Center
Mon 06:06:06 PM 31.0553 -97.4664 18° North 130 150 9,000  Level Houston Center
Mon 06:07:08 PM 31.0858 -97.4458 30° Northeast 126 145 9,000 77 Level Houston Center
Mon 06:08:42 PM 31.1297 -97.4086 36° Northeast 128 147 9,200 70 Climbing Fort Worth Center
Mon 06:10:00 PM 31.1647 -97.3790 36° Northeast  Level FlightAware Approximate
Mon 06:17:00 PM 31.3549 -97.2212 33° Northeast  Level FlightAware Approximate
Mon 06:18:00 PM 31.3829 -97.2002 33° Northeast  Level FlightAware Approximate
Mon 06:19:00 PM 31.4109 -97.1791 33° Northeast  Level FlightAware Approximate
Mon 06:20:00 PM 31.4389 -97.1580 33° Northeast  Level FlightAware Approximate
Mon 06:21:00 PM 31.4668 -97.1369 33° Northeast  Level FlightAware Approximate
Mon 06:22:00 PM 31.4948 -97.1158 33° Northeast  Level FlightAware Approximate
Mon 06:23:00 PM 31.5179 -97.0882 45° Northeast  Level FlightAware Approximate
Mon 06:24:00 PM 31.5410 -97.0607 45° Northeast  Level FlightAware Approximate
Mon 06:25:00 PM 31.5639 -97.0326 47° Northeast  Level FlightAware Approximate
Mon 06:26:00 PM 31.5865 -97.0044 47° Northeast  Level FlightAware Approximate
Mon 06:27:00 PM 31.6091 -96.9762 47° Northeast  Level FlightAware Approximate
Mon 06:28:00 PM 31.6317 -96.9480 47° Northeast  Level FlightAware Approximate
Mon 06:29:00 PM 31.6542 -96.9198 47° Northeast  Level FlightAware Approximate
Mon 06:30:00 PM 31.6768 -96.8916 47° Northeast  Level FlightAware Approximate
Mon 06:31:00 PM 31.6989 -96.8629 48° Northeast  Level FlightAware Approximate
Mon 06:32:00 PM 31.7210 -96.8341 48° Northeast  Level FlightAware Approximate
Mon 06:33:00 PM 31.7430 -96.8053 48° Northeast  Level FlightAware Approximate
Mon 06:34:00 PM 31.7650 -96.7765 48° Northeast  Level FlightAware Approximate
Mon 06:35:00 PM 31.7870 -96.7476 48° Northeast  Level FlightAware Approximate
Mon 06:35:34 PM 31.7439 -96.7464 48° Northeast 133 153 11,000  Level Fort Worth Center
Mon 06:36:00 PM 31.8090 -96.7188 48° Northeast  Level FlightAware Approximate
Mon 06:36:34 PM 31.7647 -96.7194 48° Northeast 128 147 11,000  Level Fort Worth Center
Mon 06:37:00 PM 31.8310 -96.6899 48° Northeast  Level FlightAware Approximate
Mon 06:37:34 PM 31.7853 -96.6947 46° Northeast 116 133 11,000  Level Fort Worth Center
Mon 06:38:00 PM 31.8530 -96.6610 48° Northeast  Level FlightAware Approximate
Mon 06:38:34 PM 31.8081 -96.6653 48° Northeast 116 133 11,000  Level Fort Worth Center
Mon 06:39:00 PM 31.8750 -96.6321 48° Northeast  Level FlightAware Approximate
Mon 06:39:34 PM 31.8394 -96.6528 19° North 116 133 11,000  Level Fort Worth Center
Mon 06:40:34 PM 31.8664 -96.6306 35° Northeast 116 133 11,000  Level Fort Worth Center
Mon 06:41:34 PM 31.8956 -96.6131 27° Northeast 116 133 11,000  Level Fort Worth Center
Mon 06:42:34 PM 31.9247 -96.5983 23° Northeast 116 133 11,000  Level Fort Worth Center
Mon 06:43:34 PM 31.9539 -96.5761 33° Northeast 111 128 11,000  Level Fort Worth Center
Mon 06:44:34 PM 31.9850 -96.5586 26° Northeast 111 128 11,000  Level Fort Worth Center
Mon 06:45:34 PM 32.0161 -96.5386 29° Northeast 117 135 11,000  Level Fort Worth Center
Mon 06:46:34 PM 32.0453 -96.5189 30° Northeast 117 135 11,000  Level Fort Worth Center
Mon 06:47:34 PM 32.0744 -96.5014 27° Northeast 117 135 11,000  Level Fort Worth Center
Mon 06:48:34 PM 32.1056 -96.4814 29° Northeast 117 135 11,000  Level Fort Worth Center
Mon 06:49:34 PM 32.1347 -96.4592 33° Northeast 117 135 11,000  Level Fort Worth Center
Mon 06:50:34 PM 32.1636 -96.4392 30° Northeast 117 135 11,000  Level Fort Worth Center
Mon 06:51:34 PM 32.1947 -96.4192 29° Northeast 117 135 11,000  Level Fort Worth Center
Mon 06:52:34 PM 32.2261 -96.3992 28° Northeast 117 135 11,000 -50 Level Fort Worth Center
Mon 06:53:34 PM 32.2550 -96.3817 27° Northeast 123 142 10,900 -50 Descending Fort Worth Center
Mon 06:54:34 PM 32.2883 -96.3567 32° Northeast 123 142 10,900  Level Fort Worth Center
Mon 06:55:34 PM 32.3153 -96.3417 25° Northeast 118 136 10,900  Level Fort Worth Center
Mon 06:56:34 PM 32.3486 -96.3192 30° Northeast 123 142 10,900  Level Fort Worth Center
Mon 06:57:34 PM 32.3775 -96.3014 27° Northeast 123 142 10,900  Level Fort Worth Center
Mon 06:58:34 PM 32.4108 -96.2789 30° Northeast 123 142 10,900  Level Fort Worth Center
Mon 06:59:34 PM 32.4356 -96.2589 34° Northeast 123 142 10,900 50 Level Fort Worth Center
Mon 07:00:34 PM 32.4689 -96.2389 27° Northeast 123 142 11,000 50 Climbing Fort Worth Center
Mon 07:01:34 PM 32.4958 -96.2211 29° Northeast 123 142 11,000 -50 Level Fort Worth Center
Mon 07:02:34 PM 32.5311 -96.1986 28° Northeast 123 142 10,900 -50 Descending Fort Worth Center
Mon 07:03:34 PM 32.5603 -96.1811 27° Northeast 123 142 10,900  Level Fort Worth Center
Mon 07:04:34 PM 32.5933 -96.1583 30° Northeast 123 142 10,900 50 Level Fort Worth Center
Mon 07:05:34 PM 32.6203 -96.1381 32° Northeast 123 142 11,000 50 Climbing Fort Worth Center
Mon 07:06:34 PM 32.6533 -96.1156 30° Northeast 123 142 11,000  Level Fort Worth Center
Mon 07:07:34 PM 32.6803 -96.0953 32° Northeast 123 142 11,000  Level Fort Worth Center
Mon 07:08:34 PM 32.7156 -96.0728 28° Northeast 123 142 11,000  Level Fort Worth Center
Mon 07:09:34 PM 32.7447 -96.0550 27° Northeast 123 142 11,000 -50 Level Fort Worth Center
Mon 07:10:34 PM 32.7842 -96.0319 26° Northeast 123 142 10,900 -250 Descending Fort Worth Center
Mon 07:11:34 PM 32.8153 -96.0119 28° Northeast 135 155 10,500 -400 Descending Fort Worth Center
Mon 07:12:34 PM 32.8544 -95.9842 31° Northeast 141 162 10,100 -400 Descending Fort Worth Center
Mon 07:13:34 PM 32.8856 -95.9614 32° Northeast 141 162 9,700 -450 Descending Fort Worth Center
Mon 07:14:34 PM 32.9250 -95.9358 29° Northeast 141 162 9,200 -450 Descending Fort Worth Center
Mon 07:15:34 PM 32.9561 -95.9156 29° Northeast 141 162 8,800 -400 Descending Fort Worth Center
Mon 07:16:34 PM 32.9953 -95.8900 29° Northeast 141 162 8,400 -400 Descending Fort Worth Center
Mon 07:17:34 PM 33.0286 -95.8672 30° Northeast 141 162 8,000 -400 Descending Fort Worth Center
Mon 07:18:34 PM 33.0678 -95.8394 31° Northeast 141 162 7,600 -400 Descending Fort Worth Center
Mon 07:19:34 PM 33.1031 -95.8164 29° Northeast 141 162 7,200 -450 Descending Fort Worth Center
Mon 07:20:34 PM 33.1422 -95.7908 29° Northeast 141 162 6,700 -450 Descending Fort Worth Center
Mon 07:21:34 PM 33.1753 -95.7656 33° Northeast 141 162 6,300 -450 Descending Fort Worth Center
Mon 07:22:34 PM 33.2167 -95.7397 28° Northeast 141 162 5,800 -450 Descending Fort Worth Center
Mon 07:23:34 PM 33.2519 -95.7144 31° Northeast 148 170 5,400 -500 Descending Fort Worth Center
Mon 07:24:34 PM 33.2911 -95.6864 31° Northeast 148 170 4,800 -550 Descending Fort Worth Center
Mon 07:25:34 PM 33.3264 -95.6658 26° Northeast 148 170 4,300 -400 Descending Fort Worth Center
Mon 07:26:34 PM 33.3617 -95.6428 29° Northeast 143 165 4,000 -150 Descending Fort Worth Center
Mon 07:27:34 PM 33.3906 -95.6197 34° Northeast 130 150 4,000  Level Fort Worth Center

Login

Don't have an account? Register now (free) for customized features, flight alerts, and more!